Time;durP1;ratioP1;P1;durP2;ratioP2;P2;SDS_P1;SDS_P2;PMS_P1;PMS_P2;Temp;Humidity;BMP_temperature;BMP_pressure;BME280_temperature;BME280_humidity;BME280_pressure;Samples;Min_cycle;Max_cycle;Signal;HPM_P1;HPM_P2
2021/03/28 00:01:12;;;;;;;2.28;1.13;;;7.10;71.00;;;;;;5074303;28;20044;-72
2021/03/28 00:03:58;;;;;;;1.42;1.20;;;7.10;71.00;;;;;;5074375;28;20124;-72
2021/03/28 00:06:34;;;;;;;2.20;1.17;;;7.10;71.00;;;;;;5074310;28;20373;-72
2021/03/28 00:09:11;;;;;;;2.92;2.08;;;7.10;71.10;;;;;;5072454;28;20423;-72
2021/03/28 00:11:52;;;;;;;1.52;1.35;;;7.10;71.10;;;;;;5073777;28;20017;-73
2021/03/28 00:14:34;;;;;;;5.03;1.45;;;7.10;71.30;;;;;;5073604;28;20032;-72
2021/03/28 00:17:01;;;;;;;1.98;1.33;;;7.00;71.40;;;;;;5073647;28;20106;-72
2021/03/28 00:19:32;;;;;;;1.48;1.00;;;7.00;71.50;;;;;;5073247;28;20396;-72
2021/03/28 00:22:01;;;;;;;3.20;1.40;;;7.00;71.60;;;;;;5073541;28;20020;-72
2021/03/28 00:24:30;;;;;;;1.63;0.93;;;7.00;71.70;;;;;;5073737;28;20020;-73
2021/03/28 00:27:19;;;;;;;1.98;1.52;;;7.00;71.60;;;;;;5073511;28;20082;-73
2021/03/28 00:30:20;;;;;;;1.77;1.13;;;7.00;71.50;;;;;;5073571;28;20040;-72
2021/03/28 00:32:55;;;;;;;1.83;1.10;;;7.00;71.50;;;;;;5073945;28;20056;-73
2021/03/28 00:35:25;;;;;;;1.52;1.40;;;7.00;71.50;;;;;;5072096;28;20532;-72
2021/03/28 00:38:30;;;;;;;2.05;1.30;;;7.00;71.60;;;;;;5073902;28;20086;-72
2021/03/28 00:41:09;;;;;;;1.40;1.15;;;7.00;71.50;;;;;;5067345;28;20041;-72
2021/03/28 00:43:44;;;;;;;1.27;0.90;;;7.00;71.60;;;;;;5071963;28;20346;-72
2021/03/28 00:46:35;;;;;;;2.33;1.10;;;7.00;71.70;;;;;;5073276;28;20036;-72
2021/03/28 00:49:05;;;;;;;1.52;1.00;;;7.00;71.70;;;;;;5073131;28;20062;-72
2021/03/28 00:51:34;;;;;;;2.45;1.10;;;7.00;71.70;;;;;;5073178;28;20508;-73
2021/03/28 00:54:22;;;;;;;1.20;0.80;;;7.00;71.70;;;;;;5071923;28;20075;-73
2021/03/28 00:56:52;;;;;;;1.53;1.00;;;7.10;71.70;;;;;;5071855;28;20535;-72
2021/03/28 00:59:26;;;;;;;2.08;1.20;;;7.00;71.80;;;;;;5073023;28;20134;-72
2021/03/28 01:02:10;;;;;;;3.35;1.50;;;7.10;71.90;;;;;;5073046;28;20048;-72
2021/03/28 01:04:44;;;;;;;2.83;1.30;;;7.00;71.90;;;;;;5071766;28;20367;-72
2021/03/28 01:07:09;;;;;;;2.40;1.05;;;7.10;71.90;;;;;;5073013;28;20021;-72
2021/03/28 01:10:21;;;;;;;1.65;1.55;;;7.10;71.80;;;;;;5072982;28;20032;-73
2021/03/28 01:13:11;;;;;;;3.13;1.50;;;7.10;71.80;;;;;;5073113;28;20107;-73
2021/03/28 01:16:08;;;;;;;3.33;1.63;;;7.10;71.90;;;;;;5072896;28;20103;-73
2021/03/28 01:18:58;;;;;;;1.60;1.15;;;7.20;71.90;;;;;;5072736;28;20049;-72
2021/03/28 01:21:42;;;;;;;1.83;1.45;;;7.20;71.90;;;;;;5073423;28;20119;-72
2021/03/28 01:24:14;;;;;;;1.65;1.35;;;7.20;71.80;;;;;;5071563;28;20025;-72
2021/03/28 01:27:13;;;;;;;2.65;1.45;;;7.30;71.90;;;;;;5073233;28;20033;-72
2021/03/28 01:30:11;;;;;;;1.67;1.15;;;7.30;71.80;;;;;;5071478;28;20029;-72
2021/03/28 01:32:39;;;;;;;1.92;1.40;;;7.30;71.80;;;;;;5072681;28;20028;-73
2021/03/28 01:35:20;;;;;;;1.52;1.20;;;7.30;72.00;;;;;;5072733;28;20033;-73
2021/03/28 01:38:20;;;;;;;2.05;1.65;;;7.20;72.10;;;;;;5072692;28;20020;-72
2021/03/28 01:40:51;;;;;;;1.88;1.27;;;7.20;72.30;;;;;;5072606;28;20040;-72
2021/03/28 01:43:46;;;;;;;2.92;1.20;;;7.10;72.50;;;;;;5072623;28;20021;-72
2021/03/28 01:46:21;;;;;;;1.15;1.10;;;7.10;72.60;;;;;;5071350;28;20024;-72
2021/03/28 01:48:56;;;;;;;2.33;1.00;;;7.00;72.70;;;;;;5072828;28;20465;-72
2021/03/28 01:51:39;;;;;;;1.30;1.20;;;7.00;72.70;;;;;;5071311;28;20056;-72
2021/03/28 01:54:22;;;;;;;1.83;0.98;;;7.00;72.80;;;;;;5072526;28;20112;-72
2021/03/28 01:57:01;;;;;;;1.63;1.20;;;7.00;72.80;;;;;;5071273;28;20071;-72
2021/03/28 01:59:38;;;;;;;1.63;1.15;;;7.00;72.80;;;;;;5071264;28;20476;-72
2021/03/28 02:02:39;;;;;;;1.90;1.10;;;7.00;72.80;;;;;;5075148;28;20020;-72
2021/03/28 02:05:24;;;;;;;1.33;1.20;;;7.00;72.80;;;;;;5076197;28;20028;-73
2021/03/28 02:08:14;;;;;;;3.90;1.60;;;7.00;72.80;;;;;;5076045;28;20473;-72
2021/03/28 02:11:37;;;;;;;1.30;1.00;;;7.00;72.90;;;;;;5074701;28;20039;-72
2021/03/28 02:14:31;;;;;;;3.10;1.15;;;7.00;72.90;;;;;;5033916;28;20517;-71
2021/03/28 02:17:00;;;;;;;2.03;1.60;;;7.00;72.90;;;;;;5034432;28;20120;-71
2021/03/28 02:19:37;;;;;;;1.58;1.02;;;7.00;73.00;;;;;;5033793;28;20103;-71
2021/03/28 02:22:25;;;;;;;3.40;1.27;;;7.00;73.40;;;;;;5033829;28;20025;-71
2021/03/28 02:24:55;;;;;;;1.38;1.10;;;7.00;73.00;;;;;;5033736;28;20038;-72
2021/03/28 02:27:49;;;;;;;1.92;1.00;;;7.00;73.00;;;;;;5033894;28;20030;-71
2021/03/28 02:30:18;;;;;;;1.77;1.67;;;7.00;73.00;;;;;;5017088;28;20029;-71
2021/03/28 02:33:19;;;;;;;1.42;1.00;;;7.00;73.10;;;;;;5033856;28;20091;-71
2021/03/28 02:36:02;;;;;;;0.95;0.82;;;7.00;73.00;;;;;;5033503;28;20044;-71
2021/03/28 02:38:51;;;;;;;1.98;1.15;;;7.00;73.10;;;;;;5016986;28;20038;-71
2021/03/28 02:41:25;;;;;;;;;;;7.10;73.10;;;;;;5033904;28;20455;-72
2021/03/28 02:44:20;;;;;;;0.93;0.80;;;7.00;73.00;;;;;;5037763;28;19905;-72
2021/03/28 02:47:03;;;;;;;0.85;0.85;;;7.00;73.10;;;;;;5074156;28;20024;-71
2021/03/28 02:50:09;;;;;;;1.60;1.17;;;7.00;73.20;;;;;;5075289;28;20024;-72
2021/03/28 02:52:59;;;;;;;1.88;1.67;;;7.00;73.20;;;;;;5075181;28;20033;-71
2021/03/28 02:55:52;;;;;;;0.80;0.75;;;7.00;73.20;;;;;;5075175;28;20100;-72
2021/03/28 02:58:37;;;;;;;0.85;0.70;;;7.00;73.20;;;;;;5073945;28;20032;-71
2021/03/28 03:01:21;;;;;;;1.30;0.90;;;7.00;73.30;;;;;;5075530;28;20453;-72
2021/03/28 03:04:08;;;;;;;1.58;1.15;;;7.10;73.30;;;;;;5074998;28;20024;-71
2021/03/28 03:06:51;;;;;;;1.23;1.08;;;7.10;73.40;;;;;;5073700;28;20035;-71
2021/03/28 03:09:31;;;;;;;0.90;0.90;;;7.10;73.50;;;;;;5074967;28;20048;-71
2021/03/28 03:12:28;;;;;;;1.40;0.73;;;7.10;73.50;;;;;;5073083;28;20025;-72
2021/03/28 03:15:02;;;;;;;1.17;1.05;;;7.10;73.50;;;;;;5075436;28;20052;-72
2021/03/28 03:17:59;;;;;;;1.13;1.00;;;7.10;73.60;;;;;;5074619;28;20036;-71
2021/03/28 03:20:52;;;;;;;0.77;0.77;;;7.10;73.60;;;;;;5075225;28;20080;-71
2021/03/28 03:23:29;;;;;;;0.75;0.75;;;7.10;73.70;;;;;;5074678;28;20036;-71
2021/03/28 03:26:16;;;;;;;1.02;0.70;;;7.10;73.70;;;;;;5074645;28;20032;-71
2021/03/28 03:29:10;;;;;;;1.70;1.02;;;7.10;73.70;;;;;;5074648;28;20027;-71
2021/03/28 03:31:54;;;;;;;0.73;0.73;;;7.10;73.80;;;;;;5073345;28;20032;-71
2021/03/28 03:34:38;;;;;;;1.15;0.93;;;7.10;73.90;;;;;;5073201;28;20021;-71
2021/03/28 03:37:24;;;;;;;2.22;1.27;;;7.10;73.90;;;;;;5073039;28;20492;-71
2021/03/28 03:40:04;;;;;;;1.10;0.90;;;7.10;74.00;;;;;;5074855;28;20048;-72
2021/03/28 03:42:50;;;;;;;1.55;1.02;;;7.10;74.10;;;;;;5074340;28;20024;-72
2021/03/28 03:45:32;;;;;;;1.52;0.90;;;7.00;74.20;;;;;;5072971;28;20035;-72
2021/03/28 03:48:20;;;;;;;2.50;1.10;;;7.00;74.20;;;;;;5074192;28;20031;-72
2021/03/28 03:51:07;;;;;;;1.63;1.02;;;7.00;74.20;;;;;;5072796;28;20393;-72
2021/03/28 03:53:45;;;;;;;1.02;0.88;;;7.00;74.30;;;;;;5072861;28;20038;-71
2021/03/28 03:56:23;;;;;;;5.43;1.52;;;7.00;74.40;;;;;;5074015;28;20115;-71
2021/03/28 03:59:02;;;;;;;3.10;1.25;;;7.00;74.40;;;;;;5073927;28;20040;-72
2021/03/28 04:02:03;;;;;;;3.10;1.10;;;7.10;74.30;;;;;;5072660;28;20021;-72
2021/03/28 04:04:49;;;;;;;2.42;1.13;;;7.10;74.20;;;;;;5074413;28;20473;-71
2021/03/28 04:07:46;;;;;;;2.88;1.42;;;7.10;74.10;;;;;;5073455;28;20130;-72
2021/03/28 04:10:31;;;;;;;1.85;0.93;;;7.20;74.10;;;;;;5074266;28;20032;-71
2021/03/28 04:13:07;;;;;;;3.10;1.00;;;7.20;74.10;;;;;;5073731;28;20020;-71
2021/03/28 04:15:46;;;;;;;1.52;1.33;;;7.20;74.10;;;;;;5073677;28;20462;-71
2021/03/28 04:18:28;;;;;;;2.35;1.42;;;7.30;74.20;;;;;;5073430;28;20105;-71
2021/03/28 04:21:12;;;;;;;1.55;1.10;;;7.30;74.20;;;;;;5073504;28;20033;-72
2021/03/28 04:24:02;;;;;;;2.67;1.20;;;7.30;74.20;;;;;;5072093;28;20031;-71
2021/03/28 04:26:55;;;;;;;2.08;1.00;;;7.30;74.20;;;;;;5074065;28;20112;-71
2021/03/28 04:29:21;;;;;;;2.47;1.15;;;7.30;74.20;;;;;;5074031;28;20086;-71
2021/03/28 04:32:02;;;;;;;2.67;1.45;;;7.30;74.20;;;;;;5072438;28;20093;-71
2021/03/28 04:34:53;;;;;;;1.88;1.05;;;7.40;74.30;;;;;;5073780;28;20017;-71
2021/03/28 04:37:33;;;;;;;1.05;0.93;;;7.30;74.20;;;;;;5073260;28;20031;-71
2021/03/28 04:40:26;;;;;;;2.13;0.68;;;7.40;74.30;;;;;;5073810;28;20036;-71
2021/03/28 04:42:52;;;;;;;1.90;0.73;;;7.40;74.30;;;;;;5073857;28;20024;-71
2021/03/28 04:45:29;;;;;;;1.23;1.00;;;7.40;74.40;;;;;;5073233;28;20035;-71
2021/03/28 04:48:32;;;;;;;1.52;1.00;;;7.40;74.40;;;;;;5073794;28;20024;-72
2021/03/28 04:51:25;;;;;;;3.67;1.85;;;7.40;74.30;;;;;;5071919;28;20024;-71
2021/03/28 04:54:24;;;;;;;2.78;1.80;;;7.40;74.30;;;;;;5073769;28;20017;-72
2021/03/28 04:57:12;;;;;;;2.92;1.35;;;7.40;74.30;;;;;;5072009;28;20101;-71
2021/03/28 05:00:03;;;;;;;0.75;0.75;;;7.40;74.40;;;;;;5073639;28;20516;-72
2021/03/28 05:03:06;;;;;;;1.25;1.15;;;7.40;74.50;;;;;;5073648;28;20025;-71
2021/03/28 05:06:03;;;;;;;1.15;0.80;;;7.30;74.50;;;;;;5071738;28;20044;-72
2021/03/28 05:08:47;;;;;;;1.50;1.33;;;7.30;74.60;;;;;;5073036;28;20047;-71
2021/03/28 05:11:57;;;;;;;1.15;0.90;;;7.30;74.50;;;;;;5072985;28;20020;-72
2021/03/28 05:14:29;;;;;;;2.03;1.23;;;7.30;74.50;;;;;;5073540;28;20025;-71
2021/03/28 05:17:19;;;;;;;2.67;1.23;;;7.40;74.60;;;;;;5072976;28;20539;-71
2021/03/28 05:19:56;;;;;;;1.40;0.90;;;7.40;74.60;;;;;;5071565;28;20040;-71
2021/03/28 05:22:41;;;;;;;1.20;0.63;;;7.40;74.60;;;;;;5072927;28;20063;-71
2021/03/28 05:26:01;;;;;;;1.00;0.80;;;7.40;74.50;;;;;;5072860;28;20036;-72
2021/03/28 05:29:05;;;;;;;0.88;0.85;;;7.50;74.40;;;;;;5030840;28;20043;-72
2021/03/28 05:31:42;;;;;;;1.38;0.95;;;7.50;74.30;;;;;;5020283;28;20136;-72
2021/03/28 05:34:36;;;;;;;1.05;0.80;;;7.60;74.30;;;;;;5030829;28;20030;-71
2021/03/28 05:37:19;;;;;;;1.67;0.82;;;7.60;74.20;;;;;;5034239;28;20041;-71
2021/03/28 05:40:21;;;;;;;1.17;1.05;;;7.70;74.20;;;;;;5034612;28;20041;-71
2021/03/28 05:43:06;;;;;;;1.13;1.13;;;7.70;74.30;;;;;;5034716;28;20041;-71
2021/03/28 05:45:58;;;;;;;0.50;0.50;;;7.70;74.30;;;;;;5035101;28;20034;-71
2021/03/28 05:48:36;;;;;;;1.40;0.98;;;7.70;74.20;;;;;;5017759;28;20390;-71
2021/03/28 05:51:22;;;;;;;0.90;0.90;;;7.80;74.20;;;;;;5034488;28;20489;-71
2021/03/28 05:53:56;;;;;;;3.30;1.33;;;7.80;74.10;;;;;;5034957;28;20041;-72
2021/03/28 05:56:47;;;;;;;1.83;0.98;;;7.80;74.10;;;;;;5034750;28;20063;-71
2021/03/28 05:59:39;;;;;;;2.22;1.08;;;7.90;74.00;;;;;;5017626;28;20025;-71
2021/03/28 06:02:35;;;;;;;1.38;0.80;;;8.00;74.00;;;;;;5048679;28;20043;-71
2021/03/28 06:06:04;;;;;;;0.55;0.55;;;8.00;73.90;;;;;;5074918;28;20025;-70
2021/03/28 06:09:08;;;;;;;3.53;1.15;;;8.10;73.80;;;;;;5062401;28;20444;-70
2021/03/28 06:12:11;;;;;;;3.22;1.75;;;8.20;73.70;;;;;;5076018;28;20051;-71
2021/03/28 06:14:44;;;;;;;0.68;0.68;;;8.30;73.50;;;;;;5076051;28;20036;-70
2021/03/28 06:17:22;;;;;;;0.70;0.70;;;8.40;73.50;;;;;;5075980;28;20039;-71
2021/03/28 06:20:17;;;;;;;1.10;0.80;;;8.40;73.40;;;;;;5075819;28;20486;-70
2021/03/28 06:23:04;;;;;;;1.38;0.77;;;8.40;73.40;;;;;;5075803;28;20094;-70
2021/03/28 06:26:07;;;;;;;0.88;0.70;;;8.50;73.50;;;;;;5075737;28;20055;-70
2021/03/28 06:29:11;;;;;;;1.70;1.30;;;8.50;73.50;;;;;;5075712;28;20107;-70
2021/03/28 06:32:15;;;;;;;0.77;0.77;;;8.60;73.40;;;;;;5075552;28;20035;-71
2021/03/28 06:34:59;;;;;;;0.57;0.57;;;8.60;73.40;;;;;;5075596;28;20080;-70
2021/03/28 06:37:56;;;;;;;0.93;0.90;;;8.70;73.30;;;;;;5075589;28;20037;-71
2021/03/28 06:40:42;;;;;;;0.55;0.55;;;8.70;73.30;;;;;;5075972;28;20060;-71
2021/03/28 06:43:45;;;;;;;1.02;0.70;;;8.70;73.30;;;;;;5075532;28;20103;-71
2021/03/28 06:46:32;;;;;;;1.92;0.90;;;8.70;73.30;;;;;;5075399;28;20032;-71
2021/03/28 06:49:13;;;;;;;1.45;0.90;;;8.70;73.40;;;;;;5075361;28;20120;-71
2021/03/28 06:52:15;;;;;;;2.05;1.05;;;8.70;73.50;;;;;;5075363;28;20028;-71
2021/03/28 06:54:52;;;;;;;1.10;1.00;;;8.70;73.60;;;;;;5033935;28;20065;-71
2021/03/28 06:57:34;;;;;;;0.70;0.68;;;8.70;73.70;;;;;;5033851;28;20120;-71
2021/03/28 07:00:17;;;;;;;2.05;1.50;;;8.70;73.70;;;;;;5033755;28;20045;-72
2021/03/28 07:03:17;;;;;;;1.42;1.00;;;8.70;73.90;;;;;;5033126;28;20482;-71
2021/03/28 07:05:57;;;;;;;1.70;1.10;;;8.60;74.00;;;;;;5033158;28;20037;-71
2021/03/28 07:08:44;;;;;;;1.40;1.10;;;8.60;74.20;;;;;;5033562;28;20044;-72
2021/03/28 07:11:27;;;;;;;0.73;0.73;;;8.60;74.20;;;;;;5032907;28;20434;-72
2021/03/28 07:13:56;;;;;;;1.55;1.20;;;8.60;74.10;;;;;;5032722;28;20032;-72
2021/03/28 07:16:40;;;;;;;1.27;0.80;;;8.80;73.80;;;;;;5032781;28;20030;-72
2021/03/28 07:19:21;;;;;;;1.45;1.30;;;9.00;73.40;;;;;;5032749;28;20056;-71
2021/03/28 07:22:04;;;;;;;1.00;1.00;;;9.20;73.00;;;;;;5033147;28;20030;-71
2021/03/28 07:24:51;;;;;;;2.65;1.42;;;9.30;72.80;;;;;;5032704;28;20030;-71
2021/03/28 07:27:31;;;;;;;1.52;1.30;;;9.30;72.60;;;;;;5033098;28;20033;-72
2021/03/28 07:30:28;;;;;;;2.30;1.40;;;9.50;72.70;;;;;;5032382;28;20587;-71
2021/03/28 07:33:47;;;;;;;1.33;1.23;;;9.50;72.70;;;;;;5074381;28;20380;-71
2021/03/28 07:36:40;;;;;;;2.78;1.40;;;9.60;72.60;;;;;;5074985;28;20024;-71
2021/03/28 07:39:27;;;;;;;2.17;1.52;;;9.70;72.40;;;;;;5074732;28;20031;-71
2021/03/28 07:42:11;;;;;;;2.42;1.58;;;9.80;72.40;;;;;;5074062;28;20052;-71
2021/03/28 07:45:03;;;;;;;2.38;1.23;;;9.90;72.20;;;;;;5074802;28;20032;-72
2021/03/28 07:47:45;;;;;;;1.25;1.15;;;9.90;72.20;;;;;;5074042;28;20040;-71
2021/03/28 07:50:29;;;;;;;1.83;1.40;;;10.00;72.30;;;;;;5074017;28;20035;-71
2021/03/28 07:53:23;;;;;;;4.10;1.67;;;10.10;72.10;;;;;;5073988;28;20020;-71
2021/03/28 07:56:15;;;;;;;1.70;1.23;;;10.20;72.10;;;;;;5074478;28;20021;-70
2021/03/28 07:58:46;;;;;;;2.65;1.95;;;10.30;72.00;;;;;;5067589;28;20051;-71
2021/03/28 08:01:31;;;;;;;4.05;1.92;;;10.30;71.90;;;;;;5074167;28;20112;-71
2021/03/28 08:04:30;;;;;;;1.85;1.33;;;10.30;72.00;;;;;;5074285;28;20062;-70
2021/03/28 08:06:59;;;;;;;3.47;1.65;;;10.20;72.30;;;;;;5072215;28;20020;-71
2021/03/28 08:09:44;;;;;;;1.95;1.40;;;10.10;72.60;;;;;;5072398;28;20085;-71
2021/03/28 08:12:28;;;;;;;2.25;1.25;;;10.00;72.70;;;;;;5073415;28;20052;-71
2021/03/28 08:15:21;;;;;;;1.90;1.30;;;10.00;73.00;;;;;;5073594;28;20031;-72
2021/03/28 08:18:13;;;;;;;1.20;1.05;;;10.10;72.90;;;;;;5072058;28;20458;-71
2021/03/28 08:21:16;;;;;;;1.83;1.58;;;10.10;72.90;;;;;;5073948;28;20060;-70
2021/03/28 08:24:12;;;;;;;2.83;1.65;;;10.10;72.80;;;;;;5073434;28;20033;-70
2021/03/28 08:26:59;;;;;;;3.53;2.20;;;10.20;72.90;;;;;;5073393;28;20086;-70
2021/03/28 08:29:31;;;;;;;4.72;2.33;;;10.20;72.80;;;;;;5073912;28;20112;-70
2021/03/28 08:32:13;;;;;;;4.32;1.88;;;10.20;72.90;;;;;;5073864;28;20059;-70
2021/03/28 08:35:01;;;;;;;5.22;2.20;;;10.20;72.80;;;;;;5073918;28;20028;-70
2021/03/28 08:37:56;;;;;;;3.40;1.98;;;10.30;72.80;;;;;;5073252;28;20040;-71
2021/03/28 08:40:41;;;;;;;2.60;1.73;;;10.40;72.50;;;;;;5072993;28;20108;-71
2021/03/28 08:43:31;;;;;;;3.03;1.60;;;10.50;72.40;;;;;;5073789;28;20021;-71
2021/03/28 08:46:08;;;;;;;4.55;1.80;;;10.60;72.40;;;;;;5073232;28;20079;-71
2021/03/28 08:48:47;;;;;;;3.10;1.60;;;10.70;72.20;;;;;;5073165;28;20032;-70
2021/03/28 08:51:40;;;;;;;3.90;1.98;;;10.80;72.20;;;;;;5073131;28;20040;-71
2021/03/28 08:54:40;;;;;;;5.32;1.90;;;10.90;71.90;;;;;;5073051;28;20029;-71
2021/03/28 08:57:24;;;;;;;2.63;1.60;;;11.00;71.70;;;;;;5071768;28;20024;-71
2021/03/28 09:00:27;;;;;;;4.15;2.15;;;11.10;71.70;;;;;;5072900;28;20028;-72
2021/03/28 09:03:11;;;;;;;2.35;1.73;;;11.30;71.40;;;;;;5072988;28;20029;-71
2021/03/28 09:05:51;;;;;;;3.88;2.22;;;11.30;71.40;;;;;;5073486;28;20020;-71
2021/03/28 09:08:22;;;;;;;2.58;1.77;;;11.40;71.20;;;;;;5073003;28;20048;-71
2021/03/28 09:11:24;;;;;;;1.60;1.30;;;11.40;71.30;;;;;;5072401;28;20081;-71
2021/03/28 09:14:27;;;;;;;4.35;1.70;;;11.50;71.20;;;;;;5076079;28;20023;-71
2021/03/28 09:17:24;;;;;;;1.60;1.30;;;11.70;71.00;;;;;;5077063;28;20423;-71
2021/03/28 09:19:55;;;;;;;1.85;1.25;;;11.90;70.60;;;;;;5076920;28;20382;-71
2021/03/28 09:22:41;;;;;;;2.75;1.23;;;12.10;70.30;;;;;;5077106;28;20048;-70
2021/03/28 09:25:41;;;;;;;2.85;1.80;;;12.20;70.00;;;;;;5076854;28;20142;-71
2021/03/28 09:28:33;;;;;;;3.08;1.48;;;12.30;69.80;;;;;;5052409;28;20414;-71
2021/03/28 09:31:08;;;;;;;1.70;1.33;;;12.30;69.90;;;;;;5075431;28;20060;-72
2021/03/28 09:33:50;;;;;;;2.78;1.58;;;12.40;70.00;;;;;;5075484;28;20107;-71
2021/03/28 09:36:28;;;;;;;3.38;1.50;;;12.50;69.40;;;;;;5076685;28;20032;-71
2021/03/28 09:39:10;;;;;;;3.60;1.92;;;12.50;69.40;;;;;;5076548;28;20048;-71
2021/03/28 09:41:38;;;;;;;1.40;1.10;;;12.60;69.50;;;;;;5075245;28;20055;-71
2021/03/28 09:44:28;;;;;;;4.78;2.20;;;12.60;69.20;;;;;;5077001;28;20021;-71
2021/03/28 09:46:59;;;;;;;3.60;1.65;;;12.70;69.10;;;;;;5075184;28;20035;-71
2021/03/28 09:49:42;;;;;;;2.20;1.30;;;12.80;69.10;;;;;;5076410;28;20464;-71
2021/03/28 09:52:34;;;;;;;1.80;1.40;;;13.00;68.80;;;;;;5075066;28;20029;-72
2021/03/28 09:55:26;;;;;;;4.38;2.60;;;13.00;68.50;;;;;;5076782;28;20055;-71
2021/03/28 09:58:04;;;;;;;1.85;1.25;;;13.00;68.20;;;;;;5076731;28;20021;-72
2021/03/28 10:00:47;;;;;;;3.38;1.38;;;13.00;68.30;;;;;;5076072;28;20054;-71
2021/03/28 10:03:31;;;;;;;2.78;1.67;;;13.10;68.20;;;;;;5076911;28;20031;-72
2021/03/28 10:06:15;;;;;;;2.97;1.63;;;13.10;67.80;;;;;;5076530;28;20017;-72
2021/03/28 10:08:44;;;;;;;6.80;1.95;;;13.10;67.60;;;;;;5076463;28;20024;-76
2021/03/28 10:11:32;;;;;;;3.65;2.08;;;13.10;67.40;;;;;;5075735;28;20052;-76
2021/03/28 10:14:10;;;;;;;2.00;1.30;;;13.20;67.20;;;;;;5075863;28;20021;-71
2021/03/28 10:16:46;;;;;;;5.43;2.72;;;13.30;66.80;;;;;;5074693;28;20099;-72
2021/03/28 10:19:16;;;;;;;6.03;1.50;;;13.40;65.80;;;;;;5075737;28;20121;-72
2021/03/28 10:22:27;;;;;;;2.88;1.30;;;13.40;66.00;;;;;;5075857;28;20095;-71
2021/03/28 10:25:25;;;;;;;3.85;2.00;;;13.70;65.80;;;;;;5065259;28;20036;-72
2021/03/28 10:28:15;;;;;;;2.15;1.17;;;13.80;65.00;;;;;;5074474;28;20025;-72
2021/03/28 10:31:04;;;;;;;1.35;1.15;;;13.80;65.00;;;;;;5075706;28;20123;-73
2021/03/28 10:33:52;;;;;;;3.60;1.80;;;13.80;64.90;;;;;;5074363;28;20426;-73
2021/03/28 10:36:27;;;;;;;1.13;0.63;;;13.80;65.00;;;;;;5075461;28;20035;-73
2021/03/28 10:38:58;;;;;;;2.03;1.15;;;13.80;64.80;;;;;;5075575;28;20388;-73
2021/03/28 10:41:57;;;;;;;2.63;1.30;;;13.80;64.60;;;;;;5075496;28;20397;-72
2021/03/28 10:45:02;;;;;;;1.42;1.08;;;13.70;64.50;;;;;;5076072;28;20024;-72
2021/03/28 10:48:03;;;;;;;1.00;0.98;;;13.60;64.40;;;;;;5075429;28;20042;-71
2021/03/28 10:50:53;;;;;;;1.63;1.10;;;13.60;64.70;;;;;;5075921;28;20477;-71
2021/03/28 10:53:55;;;;;;;3.15;1.52;;;13.50;64.40;;;;;;5075842;28;20085;-74
2021/03/28 10:56:49;;;;;;;2.45;1.38;;;13.40;64.50;;;;;;5074009;28;20024;-72
2021/03/28 10:59:36;;;;;;;2.72;1.90;;;13.30;64.30;;;;;;5075671;28;20021;-71
2021/03/28 11:02:04;;;;;;;1.40;1.27;;;13.10;64.50;;;;;;5075620;28;20384;-72
2021/03/28 11:04:41;;;;;;;1.83;1.08;;;13.10;64.80;;;;;;5075052;28;20017;-71
2021/03/28 11:07:36;;;;;;;1.42;0.93;;;13.10;64.90;;;;;;5075553;28;20029;-72
2021/03/28 11:10:39;;;;;;;1.55;1.40;;;13.10;64.80;;;;;;5067291;28;20409;-74
2021/03/28 11:13:30;;;;;;;2.38;1.63;;;13.10;64.70;;;;;;5073606;28;20062;-73
2021/03/28 11:16:34;;;;;;;1.55;1.20;;;13.00;64.70;;;;;;5074787;28;20028;-72
2021/03/28 11:19:45;;;;;;;1.33;0.90;;;13.00;64.70;;;;;;5073295;28;20090;-73
2021/03/28 11:22:38;;;;;;;2.05;1.08;;;12.90;65.00;;;;;;5074751;28;20036;-72
2021/03/28 11:25:20;;;;;;;1.15;0.80;;;12.80;65.10;;;;;;5075211;28;20145;-72
2021/03/28 11:28:07;;;;;;;2.25;1.10;;;12.90;65.30;;;;;;5074891;28;20021;-72
2021/03/28 11:30:39;;;;;;;2.55;1.58;;;12.80;65.00;;;;;;5074573;28;20027;-72
2021/03/28 11:33:29;;;;;;;1.95;1.08;;;12.60;65.30;;;;;;5073950;28;20025;-72
2021/03/28 11:35:55;;;;;;;1.90;1.10;;;12.50;65.70;;;;;;5074393;28;20099;-73
2021/03/28 11:38:20;;;;;;;1.17;1.00;;;12.20;66.20;;;;;;5073179;28;20525;-73
2021/03/28 11:41:06;;;;;;;1.50;1.08;;;12.00;66.80;;;;;;5074194;28;20040;-73
2021/03/28 11:43:34;;;;;;;1.63;1.10;;;11.90;67.10;;;;;;5053160;28;20028;-72
2021/03/28 11:46:05;;;;;;;1.52;1.00;;;11.80;67.30;;;;;;5074155;28;20095;-72
2021/03/28 11:49:01;;;;;;;1.27;1.00;;;11.80;67.30;;;;;;5074186;28;20036;-72
2021/03/28 11:51:36;;;;;;;2.20;1.08;;;11.70;67.50;;;;;;5074086;28;20389;-72
2021/03/28 11:54:12;;;;;;;1.52;1.10;;;11.60;67.60;;;;;;5074017;28;20024;-71
2021/03/28 11:56:43;;;;;;;2.78;0.93;;;11.60;67.60;;;;;;5072798;28;20482;-71
2021/03/28 11:59:22;;;;;;;1.50;1.08;;;11.70;67.40;;;;;;5072615;28;20397;-71
2021/03/28 12:04:43;;;;;;;2.70;1.88;;;11.90;67.00;;;;;;5074121;28;20033;-72
2021/03/28 12:07:23;;;;;;;3.25;1.25;;;12.00;66.60;;;;;;5073766;28;20036;-72
2021/03/28 12:10:00;;;;;;;4.07;1.33;;;12.10;66.60;;;;;;5073731;28;20024;-73
2021/03/28 12:12:36;;;;;;;1.20;0.77;;;12.30;66.20;;;;;;5072554;28;20028;-72
2021/03/28 12:15:39;;;;;;;2.63;1.77;;;12.40;66.00;;;;;;5073535;28;20032;-72
2021/03/28 12:18:23;;;;;;;1.98;1.20;;;12.60;65.90;;;;;;5073358;28;20098;-70
2021/03/28 12:21:06;;;;;;;1.13;0.88;;;12.50;65.60;;;;;;5073519;28;20120;-72
2021/03/28 12:23:44;;;;;;;1.48;1.30;;;12.50;65.90;;;;;;5073847;28;20055;-72
2021/03/28 12:26:12;;;;;;;1.92;1.23;;;12.50;66.00;;;;;;5073472;28;20032;-72
2021/03/28 12:29:10;;;;;;;1.73;1.08;;;12.50;66.10;;;;;;5074049;28;20025;-72
2021/03/28 12:31:47;;;;;;;2.28;1.30;;;12.50;66.00;;;;;;5074068;28;20123;-72
2021/03/28 12:34:21;;;;;;;0.80;0.80;;;12.50;65.80;;;;;;5073331;28;20457;-72
2021/03/28 12:37:08;;;;;;;1.85;1.38;;;12.50;66.00;;;;;;5073361;28;20516;-72
2021/03/28 12:39:38;;;;;;;1.27;1.10;;;12.50;65.90;;;;;;5073284;28;20036;-72
2021/03/28 12:42:04;;;;;;;1.45;1.15;;;12.50;65.90;;;;;;5073862;28;20021;-72
2021/03/28 12:44:36;;;;;;;2.22;1.42;;;12.50;65.90;;;;;;5073171;28;20098;-72
2021/03/28 12:47:03;;;;;;;1.23;1.10;;;12.50;65.90;;;;;;5073118;28;20028;-72
2021/03/28 12:49:33;;;;;;;1.58;1.20;;;12.50;66.00;;;;;;5071921;28;20028;-72
2021/03/28 12:52:11;;;;;;;;;;;12.50;66.00;;;;;;5074131;28;20052;-72
2021/03/28 12:54:56;;;;;;;2.10;1.30;;;12.50;66.20;;;;;;5073185;28;19904;-72
2021/03/28 12:57:56;;;;;;;1.35;1.25;;;12.50;66.10;;;;;;5073003;28;20108;-72
2021/03/28 13:00:44;;;;;;;1.52;0.90;;;12.50;66.20;;;;;;5056945;28;20056;-72
2021/03/28 13:03:25;;;;;;;1.10;1.00;;;12.60;66.20;;;;;;5073102;28;20059;-72
2021/03/28 13:06:00;;;;;;;2.03;1.25;;;12.60;66.00;;;;;;5073667;28;20092;-72
2021/03/28 13:08:27;;;;;;;3.33;1.17;;;12.60;65.90;;;;;;5071786;28;20521;-72
2021/03/28 13:11:00;;;;;;;1.08;1.08;;;12.60;66.00;;;;;;5073014;28;20477;-72
2021/03/28 13:13:26;;;;;;;0.93;0.88;;;12.60;65.90;;;;;;5071784;28;20024;-72
2021/03/28 13:16:00;;;;;;;1.85;1.42;;;12.60;66.00;;;;;;5072966;28;20183;-72
2021/03/28 13:18:53;;;;;;;1.50;0.85;;;12.60;66.00;;;;;;5073071;28;20127;-73
2021/03/28 13:21:24;;;;;;;1.58;0.98;;;12.60;66.00;;;;;;5070895;28;20072;-72
2021/03/28 13:23:49;;;;;;;1.98;1.67;;;12.50;66.00;;;;;;5071664;28;20052;-72
2021/03/28 13:26:24;;;;;;;0.80;0.80;;;12.50;66.00;;;;;;5071642;28;20056;-72
2021/03/28 13:28:57;;;;;;;1.52;1.13;;;12.60;66.00;;;;;;5071570;28;20033;-72
2021/03/28 13:31:28;;;;;;;1.70;1.13;;;12.50;65.80;;;;;;5072687;28;20488;-72
2021/03/28 13:34:01;;;;;;;1.98;0.75;;;12.60;65.80;;;;;;5071567;28;20021;-72
2021/03/28 13:36:33;;;;;;;0.93;0.90;;;12.60;66.40;;;;;;5072813;28;20021;-72
2021/03/28 13:39:07;;;;;;;1.02;0.70;;;12.60;65.70;;;;;;5072794;28;20103;-72
2021/03/28 13:41:36;;;;;;;1.17;0.90;;;12.70;65.70;;;;;;5073328;28;20404;-72
2021/03/28 13:44:37;;;;;;;0.95;0.95;;;12.60;65.70;;;;;;5072693;28;20024;-72
2021/03/28 13:47:05;;;;;;;3.65;1.30;;;12.70;65.80;;;;;;5072700;28;20380;-72
2021/03/28 13:49:48;;;;;;;1.77;1.23;;;12.70;65.80;;;;;;5072614;28;20032;-73
2021/03/28 13:52:19;;;;;;;2.42;1.55;;;12.70;65.70;;;;;;5072628;28;20036;-72
2021/03/28 13:55:00;;;;;;;1.15;0.80;;;12.70;65.80;;;;;;5072556;28;20028;-73
2021/03/28 13:57:30;;;;;;;1.90;0.85;;;12.70;65.80;;;;;;5073064;28;20419;-72
2021/03/28 13:59:58;;;;;;;0.90;0.90;;;12.70;65.80;;;;;;5076797;28;20081;-73
2021/03/28 14:02:27;;;;;;;1.25;1.00;;;12.60;65.80;;;;;;5075013;28;20020;-72
2021/03/28 14:05:03;;;;;;;2.73;0.70;;;12.60;65.80;;;;;;5076789;28;20027;-73
2021/03/28 14:07:43;;;;;;;3.50;1.10;;;12.60;65.80;;;;;;5076710;28;20112;-73
2021/03/28 14:10:45;;;;;;;1.27;0.93;;;12.70;65.90;;;;;;5076773;28;20093;-73
2021/03/28 14:13:32;;;;;;;1.77;0.70;;;12.70;65.90;;;;;;5076139;28;20028;-72
2021/03/28 14:16:00;;;;;;;0.98;0.80;;;12.60;66.00;;;;;;5076593;28;20428;-73
2021/03/28 14:18:35;;;;;;;1.10;0.85;;;12.70;66.00;;;;;;5075867;28;20083;-72
2021/03/28 14:21:22;;;;;;;1.08;0.80;;;12.70;65.90;;;;;;5076444;28;20040;-73
2021/03/28 14:24:20;;;;;;;0.85;0.60;;;12.80;65.80;;;;;;5075830;28;20183;-72
2021/03/28 14:26:45;;;;;;;2.10;1.30;;;12.80;65.80;;;;;;5061878;28;20090;-73